Time;durP1;ratioP1;P1;durP2;ratioP2;P2;SDS_P1;SDS_P2;PMS_P1;PMS_P2;Temp;Humidity;BMP_temperature;BMP_pressure;BME280_temperature;BME280_humidity;BME280_pressure;Samples;Min_cycle;Max_cycle;Signal;HPM_P1;HPM_P2
2022/03/22 00:00:14;;;;;;;;;;;10.70;1.00;;;;;;10428120;27;84287;-53
2022/03/22 00:05:18;;;;;;;;;;;10.70;1.00;;;;;;10411655;28;84212;-54
2022/03/22 00:10:19;;;;;;;;;;;10.60;1.00;;;;;;10434791;28;84251;-51
2022/03/22 00:15:20;;;;;;;;;;;10.60;1.00;;;;;;10469685;27;84324;-50
2022/03/22 00:20:20;;;;;;;;;;;10.50;1.00;;;;;;10470328;27;84699;-54
2022/03/22 00:25:21;;;;;;;;;;;10.50;1.00;;;;;;10453348;27;84788;-53
2022/03/22 00:30:22;;;;;;;;;;;10.40;1.00;;;;;;10451334;28;85089;-51
2022/03/22 00:35:23;;;;;;;;;;;10.30;99.90;;;;;;10454352;27;84217;-53
2022/03/22 00:40:25;;;;;;;;;;;10.20;1.00;;;;;;10427346;27;84917;-51
2022/03/22 00:45:27;;;;;;;;;;;10.20;44.40;;;;;;10410322;28;84834;-49
2022/03/22 00:50:33;;;;;;;;;;;10.10;99.90;;;;;;10411767;28;84976;-51
2022/03/22 00:55:34;;;;;;;;;;;10.00;99.90;;;;;;10450193;22;84134;-54
2022/03/22 01:00:35;;;;;;;;;;;10.00;99.90;;;;;;10452076;27;84026;-49
2022/03/22 01:05:35;;;;;;;;;;;10.00;99.90;;;;;;10433896;28;84573;-48
2022/03/22 01:10:37;;;;;;;;;;;10.00;99.90;;;;;;10408432;28;84701;-54
2022/03/22 01:15:42;;;;;;;;;;;9.90;99.90;;;;;;10408888;28;84157;-54
2022/03/22 01:20:44;;;;;;;;;;;9.90;99.90;;;;;;10409507;28;84219;-52
2022/03/22 01:25:45;;;;;;;;;;;9.90;99.90;;;;;;10408682;28;85415;-53
2022/03/22 01:30:45;;;;;;;;;;;9.80;1.00;;;;;;10409416;28;84183;-49
2022/03/22 01:35:46;;;;;;;;;;;9.80;99.90;;;;;;10407992;28;84787;-52
2022/03/22 01:40:46;;;;;;;;;;;9.70;99.90;;;;;;10409161;28;84026;-53
2022/03/22 01:45:49;;;;;;;;;;;9.70;99.90;;;;;;10408029;28;84268;-53
2022/03/22 01:50:49;;;;;;;;;;;9.70;99.90;;;;;;10409323;28;84982;-51
2022/03/22 01:55:50;;;;;;;;;;;9.60;99.90;;;;;;10408015;28;84919;-54
2022/03/22 02:05:51;;;;;;;;;;;9.60;99.90;;;;;;10408446;28;84113;-51
2022/03/22 02:06:12;;;;;;;;;;;9.50;1.00;;;;;;10408080;28;84771;-54
2022/03/22 02:11:13;;;;;;;;;;;9.50;1.00;;;;;;10394928;28;85683;-50
2022/03/22 02:16:13;;;;;;;;;;;9.40;99.90;;;;;;10414386;28;84829;-50
2022/03/22 02:21:15;;;;;;;;;;;9.30;99.90;;;;;;10415138;28;85083;-50
2022/03/22 02:26:16;;;;;;;;;;;9.30;1.00;;;;;;10415115;28;84865;-55
2022/03/22 02:31:18;;;;;;;;;;;9.20;1.00;;;;;;10415658;28;84177;-51
2022/03/22 02:36:19;;;;;;;;;;;9.20;99.90;;;;;;10414094;28;84144;-53
2022/03/22 02:41:24;;;;;;;;;;;9.20;99.90;;;;;;10414657;28;84985;-51
2022/03/22 02:46:25;;;;;;;;;;;9.00;99.90;;;;;;10414046;28;84433;-51
2022/03/22 02:51:25;;;;;;;;;;;9.00;99.90;;;;;;10414799;28;84960;-52
2022/03/22 02:56:26;;;;;;;;;;;9.00;99.90;;;;;;10413739;28;84868;-50
2022/03/22 03:01:26;;;;;;;;;;;8.90;99.90;;;;;;10414702;28;84729;-50
2022/03/22 03:06:28;;;;;;;;;;;8.80;99.90;;;;;;10413280;28;84184;-54
2022/03/22 03:11:29;;;;;;;;;;;8.70;99.90;;;;;;10412791;28;84112;-55
2022/03/22 03:16:30;;;;;;;;;;;8.60;99.90;;;;;;10412233;28;84226;-50
2022/03/22 03:21:30;;;;;;;;;;;8.60;99.90;;;;;;10411968;28;84430;-51
2022/03/22 03:26:31;;;;;;;;;;;8.60;99.90;;;;;;10411854;28;84221;-51
2022/03/22 03:31:31;;;;;;;;;;;8.60;99.90;;;;;;10412980;28;85007;-49
2022/03/22 03:36:32;;;;;;;;;;;8.50;99.90;;;;;;10408702;28;84094;-54
2022/03/22 03:47:04;;;;;;;;;;;8.40;99.90;;;;;;10410948;28;84104;-53
2022/03/22 03:52:11;;;;;;;;;;;8.20;99.90;;;;;;10402968;28;85000;-53
2022/03/22 03:57:12;;;;;;;;;;;8.10;99.90;;;;;;10408254;28;84648;-50
2022/03/22 04:02:13;;;;;;;;;;;8.20;99.90;;;;;;10412070;28;84738;-54
2022/03/22 04:07:16;;;;;;;;;;;8.20;99.90;;;;;;10410768;28;84003;-55
2022/03/22 04:12:16;;;;;;;;;;;8.20;99.90;;;;;;10411529;28;84083;-55
2022/03/22 04:17:17;;;;;;;;;;;8.20;99.90;;;;;;10409940;28;84907;-50
2022/03/22 04:22:18;;;;;;;;;;;8.20;99.90;;;;;;10410363;28;84032;-52
2022/03/22 04:32:44;;;;;;;;;;;8.20;99.90;;;;;;10408728;28;86985;-53
2022/03/22 04:37:47;;;;;;;;;;;8.20;42.50;;;;;;10406479;28;84223;-53
2022/03/22 04:42:47;;;;;;;;;;;8.10;30.00;;;;;;10409459;28;84918;-51
2022/03/22 04:47:49;;;;;;;;;;;8.00;99.90;;;;;;10408704;28;84170;-51
2022/03/22 04:58:08;;;;;;;;;;;7.90;99.90;;;;;;10408387;28;84926;-50
2022/03/22 05:03:09;;;;;;;;;;;7.90;99.90;;;;;;10409221;28;84226;-50
2022/03/22 05:08:10;;;;;;;;;;;7.90;99.90;;;;;;10408173;28;84232;-53
2022/03/22 05:13:10;;;;;;;;;;;7.90;99.90;;;;;;10405820;28;84999;-51
2022/03/22 05:18:11;;;;;;;;;;;7.80;99.90;;;;;;10407388;28;86073;-51
2022/03/22 05:23:12;;;;;;;;;;;7.80;99.90;;;;;;10408067;28;84077;-53
2022/03/22 05:28:13;;;;;;;;;;;7.80;99.90;;;;;;10406250;28;84869;-51
2022/03/22 05:33:13;;;;;;;;;;;7.80;99.90;;;;;;10407554;28;84096;-54
2022/03/22 05:38:14;;;;;;;;;;;7.80;1.00;;;;;;10406256;28;84028;-52
2022/03/22 05:43:15;;;;;;;;;;;7.70;99.90;;;;;;10407585;28;84957;-50
2022/03/22 05:48:15;;;;;;;;;;;7.60;99.90;;;;;;10413864;28;84852;-51
2022/03/22 05:53:16;;;;;;;;;;;7.50;99.90;;;;;;10411814;28;84387;-56
2022/03/22 05:58:17;;;;;;;;;;;7.40;99.90;;;;;;10414653;28;84932;-49
2022/03/22 06:03:17;;;;;;;;;;;7.40;99.90;;;;;;10415222;28;84922;-53
2022/03/22 06:08:19;;;;;;;;;;;7.30;99.90;;;;;;10414445;28;84913;-51
2022/03/22 06:13:20;;;;;;;;;;;7.30;99.90;;;;;;10409581;28;84826;-51
2022/03/22 06:18:20;;;;;;;;;;;7.20;99.90;;;;;;10411547;28;84976;-51
2022/03/22 06:23:22;;;;;;;;;;;7.30;99.90;;;;;;10408736;28;84816;-55
2022/03/22 06:28:23;;;;;;;;;;;7.60;99.90;;;;;;10404357;28;85109;-53
2022/03/22 06:33:24;;;;;;;;;;;7.70;82.10;;;;;;10413473;28;84218;-54
2022/03/22 06:38:25;;;;;;;;;;;7.80;1.00;;;;;;10412638;28;84117;-49
2022/03/22 06:43:26;;;;;;;;;;;8.10;1.00;;;;;;10412175;28;85766;-54
2022/03/22 06:48:26;;;;;;;;;;;8.50;1.00;;;;;;10413587;28;85259;-52
2022/03/22 06:53:27;;;;;;;;;;;8.80;99.90;;;;;;10413407;28;84209;-52
2022/03/22 06:58:30;;;;;;;;;;;8.90;33.00;;;;;;10469228;22;84079;-50
2022/03/22 07:03:32;;;;;;;;;;;9.00;1.00;;;;;;10445377;28;84192;-47
2022/03/22 07:08:33;;;;;;;;;;;9.50;1.00;;;;;;10407035;28;85990;-51
2022/03/22 07:13:33;;;;;;;;;;;9.80;99.90;;;;;;10413284;28;84413;-46
2022/03/22 07:18:34;;;;;;;;;;;10.10;1.00;;;;;;10412657;28;84919;-47
2022/03/22 07:23:35;;;;;;;;;;;10.60;90.90;;;;;;10413003;28;84994;-47
2022/03/22 07:28:36;;;;;;;;;;;11.30;95.60;;;;;;10412166;28;84143;-52
2022/03/22 07:33:37;;;;;;;;;;;11.60;99.90;;;;;;10412822;28;84183;-52
2022/03/22 07:38:38;;;;;;;;;;;12.00;1.00;;;;;;10406691;28;86299;-47
2022/03/22 07:43:40;;;;;;;;;;;12.40;1.00;;;;;;10415309;28;84116;-48
2022/03/22 07:48:41;;;;;;;;;;;13.00;1.00;;;;;;10410498;28;84251;-54
2022/03/22 07:53:42;;;;;;;;;;;13.30;99.90;;;;;;10416690;28;86370;-49
2022/03/22 07:58:42;;;;;;;;;;;13.80;1.00;;;;;;10412003;28;84901;-50
2022/03/22 08:03:43;;;;;;;;;;;14.50;1.00;;;;;;10412754;28;84307;-52
2022/03/22 08:08:45;;;;;;;;;;;15.10;1.00;;;;;;10407387;28;85809;-51
2022/03/22 08:13:46;;;;;;;;;;;15.80;99.90;;;;;;10410381;28;84716;-49
2022/03/22 08:18:47;;;;;;;;;;;16.30;33.70;;;;;;10410006;28;84803;-51
2022/03/22 08:23:47;;;;;;;;;;;16.90;1.00;;;;;;10409547;28;87025;-51
2022/03/22 08:28:49;;;;;;;;;;;17.20;1.00;;;;;;10393034;28;85262;-53
2022/03/22 08:33:53;;;;;;;;;;;17.40;1.00;;;;;;10411866;28;84111;-53
2022/03/22 08:38:54;;;;;;;;;;;17.90;1.00;;;;;;10404417;28;84803;-50
2022/03/22 08:43:55;;;;;;;;;;;18.50;99.90;;;;;;10409311;28;84833;-51
2022/03/22 08:48:55;;;;;;;;;;;18.90;99.90;;;;;;10391354;28;85812;-47
2022/03/22 08:53:56;;;;;;;;;;;19.70;99.90;;;;;;10410569;28;84105;-48
2022/03/22 08:58:56;;;;;;;;;;;20.60;99.90;;;;;;10409150;28;85146;-50
2022/03/22 09:09:16;;;;;;;;;;;20.70;92.10;;;;;;10410000;28;85146;-52
2022/03/22 09:14:17;;;;;;;;;;;21.30;76.60;;;;;;10407333;28;84115;-48
2022/03/22 09:19:17;;;;;;;;;;;21.90;27.70;;;;;;10410202;28;84145;-49
2022/03/22 09:24:18;;;;;;;;;;;21.60;1.00;;;;;;10415646;28;84714;-49
2022/03/22 09:29:19;;;;;;;;;;;21.90;1.00;;;;;;10414490;28;84889;-51
2022/03/22 09:34:20;;;;;;;;;;;22.40;11.50;;;;;;10420207;28;84127;-52
2022/03/22 09:39:22;;;;;;;;;;;22.60;4.50;;;;;;10415092;28;84279;-45
2022/03/22 09:44:23;;;;;;;;;;;22.90;1.00;;;;;;10412524;28;86945;-50
2022/03/22 09:49:24;;;;;;;;;;;23.00;1.00;;;;;;10414497;28;84268;-48
2022/03/22 09:54:25;;;;;;;;;;;23.50;1.00;;;;;;10396606;28;85952;-55
2022/03/22 09:59:25;;;;;;;;;;;23.40;1.00;;;;;;10414434;28;86250;-51
2022/03/22 10:04:35;;;;;;;;;;;23.80;1.00;;;;;;10418854;28;84772;-48
2022/03/22 10:09:39;;;;;;;;;;;24.20;1.00;;;;;;10415554;28;84698;-51
2022/03/22 10:14:40;;;;;;;;;;;24.10;1.00;;;;;;10416909;28;85102;-55
2022/03/22 10:19:47;;;;;;;;;;;24.70;1.00;;;;;;10419266;28;84223;-52
2022/03/22 10:24:49;;;;;;;;;;;24.90;1.00;;;;;;10416259;28;84534;-50
2022/03/22 10:29:50;;;;;;;;;;;24.80;1.00;;;;;;10394572;28;85949;-51
2022/03/22 10:34:51;;;;;;;;;;;25.30;1.00;;;;;;10418765;28;84131;-51
2022/03/22 10:39:52;;;;;;;;;;;25.10;1.00;;;;;;10420352;28;84011;-50
2022/03/22 10:44:57;;;;;;;;;;;24.80;1.00;;;;;;10417273;28;85140;-51
2022/03/22 10:50:07;;;;;;;;;;;25.50;1.00;;;;;;10416218;28;85409;-52
2022/03/22 10:55:09;;;;;;;;;;;25.50;1.00;;;;;;10400472;28;85808;-52
2022/03/22 11:00:10;;;;;;;;;;;25.10;1.00;;;;;;10416478;28;87123;-51
2022/03/22 11:05:10;;;;;;;;;;;25.50;1.00;;;;;;10416777;28;86210;-54
2022/03/22 11:10:11;;;;;;;;;;;25.70;1.00;;;;;;10415442;28;84881;-49
2022/03/22 11:15:13;;;;;;;;;;;25.90;1.00;;;;;;10415526;28;85253;-48
2022/03/22 11:20:15;;;;;;;;;;;26.20;1.00;;;;;;10413829;28;84210;-53
2022/03/22 11:25:22;;;;;;;;;;;25.80;1.00;;;;;;10412364;28;85794;-48
2022/03/22 11:30:23;;;;;;;;;;;25.50;1.00;;;;;;10412571;28;84830;-51
2022/03/22 11:35:25;;;;;;;;;;;25.80;1.00;;;;;;10412037;28;85357;-46
2022/03/22 11:45:49;;;;;;;;;;;26.20;1.00;;;;;;10402316;28;86413;-53
2022/03/22 11:50:50;;;;;;;;;;;26.10;1.00;;;;;;10410964;28;84731;-52
2022/03/22 11:55:52;;;;;;;;;;;25.70;1.00;;;;;;10404415;28;86759;-49
2022/03/22 12:00:57;;;;;;;;;;;25.30;1.00;;;;;;10446218;28;84082;-50
2022/03/22 12:06:08;;;;;;;;;;;25.40;1.00;;;;;;10415915;28;84373;-57
2022/03/22 12:11:13;;;;;;;;;;;25.70;1.00;;;;;;10411944;28;84103;-52
2022/03/22 12:16:14;;;;;;;;;;;26.10;1.00;;;;;;10425918;28;85956;-51
2022/03/22 12:21:19;;;;;;;;;;;26.30;1.00;;;;;;10409195;28;86201;-47
2022/03/22 12:26:19;;;;;;;;;;;26.00;1.00;;;;;;10405571;28;85829;-53
2022/03/22 12:31:21;;;;;;;;;;;25.60;1.00;;;;;;10410251;28;84534;-52
2022/03/22 12:36:22;;;;;;;;;;;25.80;1.00;;;;;;10409867;28;84063;-53
2022/03/22 12:41:24;;;;;;;;;;;25.60;1.00;;;;;;10411276;28;84713;-50
2022/03/22 12:46:26;;;;;;;;;;;25.50;1.00;;;;;;10406053;28;85161;-54
2022/03/22 12:51:26;;;;;;;;;;;25.30;1.00;;;;;;10408760;28;84507;-52
2022/03/22 12:56:27;;;;;;;;;;;25.80;1.00;;;;;;10439392;22;84902;-45
2022/03/22 13:01:38;;;;;;;;;;;25.50;1.00;;;;;;10452261;27;85083;-48
2022/03/22 13:06:39;;;;;;;;;;;25.80;1.00;;;;;;10429534;28;84995;-46
2022/03/22 13:11:39;;;;;;;;;;;25.60;1.00;;;;;;10409223;28;84218;-49
2022/03/22 13:16:40;;;;;;;;;;;25.20;1.00;;;;;;10409073;28;84232;-52
2022/03/22 13:21:41;;;;;;;;;;;25.30;1.00;;;;;;10391486;28;86457;-46
2022/03/22 13:27:11;;;;;;;;;;;25.60;1.00;;;;;;10408537;28;84919;-46
2022/03/22 13:32:16;;;;;;;;;;;25.30;1.00;;;;;;10390839;28;86755;-47
2022/03/22 13:37:18;;;;;;;;;;;25.40;1.00;;;;;;10408373;28;84104;-51
2022/03/22 13:42:22;;;;;;;;;;;25.50;1.00;;;;;;10409282;28;84947;-47
2022/03/22 13:47:32;;;;;;;;;;;25.50;1.00;;;;;;10403164;28;84228;-45
2022/03/22 13:52:36;;;;;;;;;;;25.50;1.00;;;;;;10409084;28;85814;-47
2022/03/22 13:57:36;;;;;;;;;;;25.50;1.00;;;;;;10407203;28;85114;-52
2022/03/22 14:02:37;;;;;;;;;;;24.70;1.00;;;;;;10409465;28;84118;-49
2022/03/22 14:07:37;;;;;;;;;;;24.10;1.00;;;;;;10412522;28;84740;-48
2022/03/22 14:12:38;;;;;;;;;;;24.30;1.00;;;;;;10415969;28;84091;-47
2022/03/22 14:17:39;;;;;;;;;;;24.50;1.00;;;;;;10415082;28;85443;-51
2022/03/22 14:22:41;;;;;;;;;;;24.40;1.00;;;;;;10414128;28;84802;-46
2022/03/22 14:27:42;;;;;;;;;;;24.00;1.00;;;;;;10415938;28;83983;-55
2022/03/22 14:32:43;;;;;;;;;;;24.20;1.00;;;;;;10413686;28;86017;-60
2022/03/22 14:37:44;;;;;;;;;;;24.20;1.00;;;;;;10416143;28;84941;-57
2022/03/22 14:42:45;;;;;;;;;;;24.30;1.00;;;;;;10418338;28;84156;-48
2022/03/22 14:47:49;;;;;;;;;;;24.60;1.00;;;;;;10415416;28;84213;-49
2022/03/22 15:03:27;;;;;;;;;;;23.70;1.00;;;;;;10413706;28;84714;-48
2022/03/22 15:08:28;;;;;;;;;;;23.00;1.00;;;;;;10411768;28;84120;-53
2022/03/22 15:13:29;;;;;;;;;;;22.30;1.00;;;;;;10413497;28;84119;-50
2022/03/22 15:18:29;;;;;;;;;;;22.00;1.00;;;;;;10412482;28;85182;-53
2022/03/22 15:23:32;;;;;;;;;;;21.40;1.00;;;;;;10413857;28;84208;-50
2022/03/22 15:28:34;;;;;;;;;;;20.90;1.00;;;;;;10411851;28;84928;-52
2022/03/22 15:33:34;;;;;;;;;;;20.60;1.00;;;;;;10413649;28;84932;-48
2022/03/22 15:38:35;;;;;;;;;;;20.30;1.00;;;;;;10411754;28;84511;-53
2022/03/22 15:43:35;;;;;;;;;;;20.10;1.00;;;;;;10412485;28;84935;-51
2022/03/22 15:48:37;;;;;;;;;;;19.90;1.00;;;;;;10412934;28;84235;-49
2022/03/22 15:53:37;;;;;;;;;;;19.70;1.00;;;;;;10413769;28;84738;-53
2022/03/22 15:58:38;;;;;;;;;;;19.50;1.00;;;;;;10413954;28;84172;-51
2022/03/22 16:03:39;;;;;;;;;;;19.30;1.00;;;;;;10416117;28;85023;-48
2022/03/22 16:08:40;;;;;;;;;;;19.10;1.00;;;;;;10415531;28;84333;-51
2022/03/22 16:13:40;;;;;;;;;;;19.00;1.00;;;;;;10416283;28;85093;-48
2022/03/22 16:18:41;;;;;;;;;;;18.90;1.00;;;;;;10413531;28;85470;-50
2022/03/22 16:23:41;;;;;;;;;;;18.80;1.00;;;;;;10414500;28;84840;-49
2022/03/22 16:28:42;;;;;;;;;;;18.70;1.00;;;;;;10414097;28;84715;-49
2022/03/22 16:44:22;;;;;;;;;;;18.70;1.00;;;;;;10414291;28;84876;-48
2022/03/22 16:49:23;;;;;;;;;;;18.50;1.00;;;;;;10412760;28;85508;-47
2022/03/22 16:54:24;;;;;;;;;;;18.40;1.00;;;;;;10412951;28;84930;-48
2022/03/22 16:59:24;;;;;;;;;;;18.30;1.00;;;;;;10411654;28;87313;-52
2022/03/22 17:04:25;;;;;;;;;;;18.30;1.00;;;;;;10413893;28;86103;-51
2022/03/22 17:09:26;;;;;;;;;;;18.10;1.00;;;;;;10412282;28;84917;-46
2022/03/22 17:14:26;;;;;;;;;;;18.00;1.00;;;;;;10401956;28;84962;-54
2022/03/22 17:19:27;;;;;;;;;;;17.90;1.00;;;;;;10410036;28;86306;-54
2022/03/22 17:24:28;;;;;;;;;;;17.80;1.00;;;;;;10410442;28;84061;-56
2022/03/22 17:29:28;;;;;;;;;;;17.70;1.00;;;;;;10408920;28;84860;-53
2022/03/22 17:34:29;;;;;;;;;;;17.50;1.00;;;;;;10410138;28;84099;-53
2022/03/22 17:39:29;;;;;;;;;;;17.50;1.00;;;;;;10409908;28;84850;-59
2022/03/22 17:44:30;;;;;;;;;;;17.30;1.00;;;;;;10400097;28;84202;-55
2022/03/22 17:49:31;;;;;;;;;;;17.10;1.00;;;;;;10411023;28;84983;-58
2022/03/22 17:54:31;;;;;;;;;;;17.00;1.00;;;;;;10418071;28;87729;-56
2022/03/22 17:59:32;;;;;;;;;;;16.90;1.00;;;;;;10413784;28;84899;-57
2022/03/22 18:04:33;;;;;;;;;;;16.70;1.00;;;;;;10415957;28;84153;-58
2022/03/22 18:09:34;;;;;;;;;;;16.60;1.00;;;;;;10408197;28;85550;-59
2022/03/22 18:14:34;;;;;;;;;;;16.40;1.00;;;;;;10416001;28;85735;-57
2022/03/22 18:19:39;;;;;;;;;;;16.30;1.00;;;;;;10414581;28;84991;-58
2022/03/22 18:24:40;;;;;;;;;;;16.10;1.00;;;;;;10416221;28;84862;-58
2022/03/22 18:29:41;;;;;;;;;;;16.00;1.00;;;;;;10416469;28;84863;-61
2022/03/22 18:34:41;;;;;;;;;;;15.80;1.00;;;;;;10416235;28;84462;-58
2022/03/22 18:39:42;;;;;;;;;;;15.70;1.00;;;;;;10410625;28;84763;-60
2022/03/22 18:44:43;;;;;;;;;;;15.60;1.00;;;;;;10410507;28;85545;-53
2022/03/22 18:49:47;;;;;;;;;;;15.50;1.00;;;;;;10406910;28;84741;-54
2022/03/22 19:00:18;;;;;;;;;;;15.30;1.00;;;;;;10463607;27;84248;-50
2022/03/22 19:05:19;;;;;;;;;;;15.20;1.00;;;;;;10435561;28;86881;-56
2022/03/22 19:10:20;;;;;;;;;;;15.10;1.00;;;;;;10429754;28;84468;-53
2022/03/22 19:15:20;;;;;;;;;;;15.00;1.00;;;;;;10446066;28;86097;-56
2022/03/22 19:20:22;;;;;;;;;;;14.80;1.00;;;;;;10429015;28;84854;-49
2022/03/22 19:25:25;;;;;;;;;;;14.70;1.00;;;;;;10419656;28;85749;-53
2022/03/22 19:30:26;;;;;;;;;;;14.70;1.00;;;;;;10420682;28;84376;-52
2022/03/22 19:35:29;;;;;;;;;;;14.60;1.00;;;;;;10443754;28;85217;-53
2022/03/22 19:40:30;;;;;;;;;;;14.50;1.00;;;;;;10429688;28;84121;-50
2022/03/22 19:45:32;;;;;;;;;;;14.40;1.00;;;;;;10430646;28;84345;-50
2022/03/22 19:50:33;;;;;;;;;;;14.30;1.00;;;;;;10432547;28;85756;-54
2022/03/22 19:55:34;;;;;;;;;;;14.20;1.00;;;;;;10437553;28;85195;-57
2022/03/22 20:00:35;;;;;;;;;;;14.10;1.00;;;;;;10415478;28;84891;-53
2022/03/22 20:05:36;;;;;;;;;;;14.10;1.00;;;;;;10414124;28;84379;-55
2022/03/22 20:10:37;;;;;;;;;;;14.00;1.00;;;;;;10413747;28;84291;-57
2022/03/22 20:15:37;;;;;;;;;;;13.90;1.00;;;;;;10414167;28;84157;-57
2022/03/22 20:20:38;;;;;;;;;;;13.80;1.00;;;;;;10430068;28;84132;-59
2022/03/22 20:25:39;;;;;;;;;;;13.70;1.00;;;;;;10423192;28;84068;-56
2022/03/22 20:30:39;;;;;;;;;;;13.60;1.00;;;;;;10424159;28;84986;-57
2022/03/22 20:35:40;;;;;;;;;;;13.40;1.00;;;;;;10411580;28;84642;-57
2022/03/22 20:40:41;;;;;;;;;;;13.40;1.00;;;;;;10418275;28;84786;-58
2022/03/22 20:45:45;;;;;;;;;;;13.30;1.00;;;;;;10412179;28;85807;-58
2022/03/22 20:50:46;;;;;;;;;;;13.20;1.00;;;;;;10426043;28;84379;-56
2022/03/22 20:59:03;;;;;;;;;;;13.10;1.00;;;;;;10426589;28;84467;-56
2022/03/22 21:01:07;;;;;;;;;;;13.00;1.00;;;;;;10428678;28;84225;-50
2022/03/22 21:06:08;;;;;;;;;;;12.90;15.90;;;;;;10433152;28;84652;-55
2022/03/22 21:11:09;;;;;;;;;;;12.80;73.80;;;;;;10429854;28;84704;-58
2022/03/22 21:16:13;;;;;;;;;;;12.70;99.90;;;;;;10429176;27;84312;-56
2022/03/22 21:21:13;;;;;;;;;;;12.60;99.90;;;;;;10429309;27;84704;-58
2022/03/22 21:26:14;;;;;;;;;;;12.50;99.90;;;;;;10422090;28;85248;-59
2022/03/22 21:31:15;;;;;;;;;;;12.40;99.90;;;;;;10424034;28;85287;-59
2022/03/22 21:36:16;;;;;;;;;;;12.30;99.90;;;;;;10417871;27;85102;-57
2022/03/22 21:41:17;;;;;;;;;;;12.20;99.90;;;;;;10439272;28;85158;-60
2022/03/22 21:46:18;;;;;;;;;;;12.20;99.90;;;;;;10449796;28;84200;-57
2022/03/22 21:51:19;;;;;;;;;;;12.10;99.90;;;;;;10420640;27;85688;-55
2022/03/22 21:56:20;;;;;;;;;;;12.10;99.90;;;;;;10408902;28;84942;-57
2022/03/22 22:01:21;;;;;;;;;;;12.00;99.90;;;;;;10407588;28;86870;-59
2022/03/22 22:06:22;;;;;;;;;;;11.90;99.90;;;;;;10427645;27;85429;-56
2022/03/22 22:11:22;;;;;;;;;;;11.90;99.90;;;;;;10445986;28;84497;-57
2022/03/22 22:16:23;;;;;;;;;;;11.80;99.90;;;;;;10432513;27;84830;-56
2022/03/22 22:21:23;;;;;;;;;;;11.70;99.90;;;;;;10428244;28;84930;-51
2022/03/22 22:26:24;;;;;;;;;;;11.60;99.90;;;;;;10432620;28;87003;-52
2022/03/22 22:36:44;;;;;;;;;;;11.50;1.00;;;;;;10424981;27;84168;-56
2022/03/22 22:41:45;;;;;;;;;;;11.40;1.00;;;;;;10438789;28;84245;-55
2022/03/22 22:46:45;;;;;;;;;;;11.40;1.00;;;;;;10431089;28;84081;-51
2022/03/22 22:51:47;;;;;;;;;;;11.30;1.00;;;;;;10438524;28;85365;-54
2022/03/22 22:56:48;;;;;;;;;;;11.30;1.00;;;;;;10423763;28;86953;-54
2022/03/22 23:01:49;;;;;;;;;;;11.20;1.00;;;;;;10449013;28;84320;-54
2022/03/22 23:12:09;;;;;;;;;;;11.10;1.00;;;;;;10437880;28;85072;-52
2022/03/22 23:17:09;;;;;;;;;;;11.00;1.00;;;;;;10430970;27;85670;-52
2022/03/22 23:22:10;;;;;;;;;;;11.00;1.00;;;;;;10413683;28;84705;-50
2022/03/22 23:27:11;;;;;;;;;;;10.90;1.00;;;;;;10411428;28;84708;-53
2022/03/22 23:32:12;;;;;;;;;;;10.80;1.00;;;;;;10419337;28;84321;-53
2022/03/22 23:37:12;;;;;;;;;;;10.80;1.00;;;;;;10444335;27;85746;-51
2022/03/22 23:42:13;;;;;;;;;;;10.70;1.00;;;;;;10423870;28;87479;-52
2022/03/22 23:47:14;;;;;;;;;;;10.60;1.00;;;;;;10452080;28;84089;-51
2022/03/22 23:52:15;;;;;;;;;;;10.60;1.00;;;;;;10426473;27;84228;-51
2022/03/22 23:57:16;;;;;;;;;;;10.50;1.00;;;;;;10414247;28;84498;-50
